sensor_id;sensor_type;location;lat;lon;timestamp;temperature;humidity
76239;SHT30;65043;48.392;-4.472;2023-03-20T00:02:17;12.96;72.17
76239;SHT30;65043;48.392;-4.472;2023-03-20T00:04:43;12.99;72.30
76239;SHT30;65043;48.392;-4.472;2023-03-20T00:07:08;12.96;72.46
76239;SHT30;65043;48.392;-4.472;2023-03-20T00:09:37;12.99;72.55
76239;SHT30;65043;48.392;-4.472;2023-03-20T00:12:02;12.95;72.50
76239;SHT30;65043;48.392;-4.472;2023-03-20T00:14:28;12.95;72.65
76239;SHT30;65043;48.392;-4.472;2023-03-20T00:16:53;12.91;72.61
76239;SHT30;65043;48.392;-4.472;2023-03-20T00:19:28;12.92;72.56
76239;SHT30;65043;48.392;-4.472;2023-03-20T00:21:54;12.91;72.70
76239;SHT30;65043;48.392;-4.472;2023-03-20T00:24:20;12.92;72.76
76239;SHT30;65043;48.392;-4.472;2023-03-20T00:26:47;12.95;72.70
76239;SHT30;65043;48.392;-4.472;2023-03-20T00:29:22;12.95;72.59
76239;SHT30;65043;48.392;-4.472;2023-03-20T00:31:48;12.98;72.66
76239;SHT30;65043;48.392;-4.472;2023-03-20T00:34:15;12.93;72.85
76239;SHT30;65043;48.392;-4.472;2023-03-20T00:36:42;12.95;73.02
76239;SHT30;65043;48.392;-4.472;2023-03-20T00:39:07;12.96;72.79
76239;SHT30;65043;48.392;-4.472;2023-03-20T00:41:55;12.99;72.62
76239;SHT30;65043;48.392;-4.472;2023-03-20T00:44:25;13.01;72.85
76239;SHT30;65043;48.392;-4.472;2023-03-20T00:47:02;12.98;72.95
76239;SHT30;65043;48.392;-4.472;2023-03-20T00:49:30;12.99;72.94
76239;SHT30;65043;48.392;-4.472;2023-03-20T00:51:56;13.01;72.89
76239;SHT30;65043;48.392;-4.472;2023-03-20T00:54:22;13.01;72.94
76239;SHT30;65043;48.392;-4.472;2023-03-20T00:59:20;13.02;73.08
76239;SHT30;65043;48.392;-4.472;2023-03-20T01:01:47;13.02;73.04
76239;SHT30;65043;48.392;-4.472;2023-03-20T01:04:14;13.02;73.09
76239;SHT30;65043;48.392;-4.472;2023-03-20T01:06:40;13.03;73.10
76239;SHT30;65043;48.392;-4.472;2023-03-20T01:09:06;13.03;73.29
76239;SHT30;65043;48.392;-4.472;2023-03-20T01:11:32;13.02;73.09
76239;SHT30;65043;48.392;-4.472;2023-03-20T01:13:58;13.03;73.09
76239;SHT30;65043;48.392;-4.472;2023-03-20T01:16:25;13.03;73.21
76239;SHT30;65043;48.392;-4.472;2023-03-20T01:18:51;13.05;73.20
76239;SHT30;65043;48.392;-4.472;2023-03-20T01:21:18;13.08;73.20
76239;SHT30;65043;48.392;-4.472;2023-03-20T01:23:45;13.11;73.00
76239;SHT30;65043;48.392;-4.472;2023-03-20T01:26:40;13.09;73.10
76239;SHT30;65043;48.392;-4.472;2023-03-20T01:31:41;13.08;73.26
76239;SHT30;65043;48.392;-4.472;2023-03-20T01:34:09;13.05;73.40
76239;SHT30;65043;48.392;-4.472;2023-03-20T01:36:36;13.08;73.51
76239;SHT30;65043;48.392;-4.472;2023-03-20T01:39:02;13.06;73.95
76239;SHT30;65043;48.392;-4.472;2023-03-20T01:41:28;13.13;73.59
76239;SHT30;65043;48.392;-4.472;2023-03-20T01:43:54;13.11;73.48
76239;SHT30;65043;48.392;-4.472;2023-03-20T01:46:24;13.05;73.62
76239;SHT30;65043;48.392;-4.472;2023-03-20T01:51:24;13.11;73.84
76239;SHT30;65043;48.392;-4.472;2023-03-20T01:54:05;13.11;73.68
76239;SHT30;65043;48.392;-4.472;2023-03-20T01:56:35;13.11;73.43
76239;SHT30;65043;48.392;-4.472;2023-03-20T01:59:08;13.09;73.52
76239;SHT30;65043;48.392;-4.472;2023-03-20T02:01:35;13.11;73.43
76239;SHT30;65043;48.392;-4.472;2023-03-20T02:04:01;13.12;73.72
76239;SHT30;65043;48.392;-4.472;2023-03-20T02:06:27;13.12;73.56
76239;SHT30;65043;48.392;-4.472;2023-03-20T02:08:53;13.13;73.93
76239;SHT30;65043;48.392;-4.472;2023-03-20T02:11:22;13.09;73.59
76239;SHT30;65043;48.392;-4.472;2023-03-20T02:13:53;13.08;73.81
76239;SHT30;65043;48.392;-4.472;2023-03-20T02:16:19;13.03;73.89
76239;SHT30;65043;48.392;-4.472;2023-03-20T02:18:47;13.02;73.68
76239;SHT30;65043;48.392;-4.472;2023-03-20T02:29:53;13.03;73.92
76239;SHT30;65043;48.392;-4.472;2023-03-20T02:41:13;13.13;73.67
76239;SHT30;65043;48.392;-4.472;2023-03-20T02:43:51;13.12;73.67
76239;SHT30;65043;48.392;-4.472;2023-03-20T02:46:28;13.09;74.00
76239;SHT30;65043;48.392;-4.472;2023-03-20T02:48:57;13.12;73.99
76239;SHT30;65043;48.392;-4.472;2023-03-20T02:57:05;13.08;74.24
76239;SHT30;65043;48.392;-4.472;2023-03-20T03:02:36;13.09;74.43
76239;SHT30;65043;48.392;-4.472;2023-03-20T03:05:09;13.06;74.12
76239;SHT30;65043;48.392;-4.472;2023-03-20T03:07:36;13.03;74.22
76239;SHT30;65043;48.392;-4.472;2023-03-20T03:10:16;13.03;74.13
76239;SHT30;65043;48.392;-4.472;2023-03-20T03:12:45;13.03;74.22
76239;SHT30;65043;48.392;-4.472;2023-03-20T03:15:21;13.03;74.06
76239;SHT30;65043;48.392;-4.472;2023-03-20T03:17:49;13.06;74.04
76239;SHT30;65043;48.392;-4.472;2023-03-20T03:20:32;13.06;74.12
76239;SHT30;65043;48.392;-4.472;2023-03-20T03:22:59;13.08;74.05
76239;SHT30;65043;48.392;-4.472;2023-03-20T03:25:28;13.08;73.84
76239;SHT30;65043;48.392;-4.472;2023-03-20T03:30:42;13.11;74.03
76239;SHT30;65043;48.392;-4.472;2023-03-20T03:35:36;13.09;74.09
76239;SHT30;65043;48.392;-4.472;2023-03-20T03:38:23;13.09;74.12
76239;SHT30;65043;48.392;-4.472;2023-03-20T03:43:43;13.15;74.11
76239;SHT30;65043;48.392;-4.472;2023-03-20T03:46:45;13.18;74.34
76239;SHT30;65043;48.392;-4.472;2023-03-20T03:49:19;13.20;74.00
76239;SHT30;65043;48.392;-4.472;2023-03-20T03:51:49;13.20;73.95
76239;SHT30;65043;48.392;-4.472;2023-03-20T03:54:23;13.19;74.03
76239;SHT30;65043;48.392;-4.472;2023-03-20T03:56:50;13.18;74.10
76239;SHT30;65043;48.392;-4.472;2023-03-20T03:59:26;13.13;74.25
76239;SHT30;65043;48.392;-4.472;2023-03-20T04:01:55;13.15;74.33
76239;SHT30;65043;48.392;-4.472;2023-03-20T04:04:23;13.16;74.41
76239;SHT30;65043;48.392;-4.472;2023-03-20T04:06:50;13.16;74.44
76239;SHT30;65043;48.392;-4.472;2023-03-20T04:09:15;13.16;74.46
76239;SHT30;65043;48.392;-4.472;2023-03-20T04:11:41;13.15;74.27
76239;SHT30;65043;48.392;-4.472;2023-03-20T04:14:07;13.16;74.38
76239;SHT30;65043;48.392;-4.472;2023-03-20T04:16:33;13.16;74.22
76239;SHT30;65043;48.392;-4.472;2023-03-20T04:18:58;13.16;74.32
76239;SHT30;65043;48.392;-4.472;2023-03-20T04:21:24;13.15;74.28
76239;SHT30;65043;48.392;-4.472;2023-03-20T04:23:49;13.13;74.44
76239;SHT30;65043;48.392;-4.472;2023-03-20T04:26:15;13.19;74.33
76239;SHT30;65043;48.392;-4.472;2023-03-20T04:28:40;13.15;74.51
76239;SHT30;65043;48.392;-4.472;2023-03-20T04:31:06;13.16;74.38
76239;SHT30;65043;48.392;-4.472;2023-03-20T04:33:31;13.20;74.64
76239;SHT30;65043;48.392;-4.472;2023-03-20T04:35:56;13.20;74.47
76239;SHT30;65043;48.392;-4.472;2023-03-20T04:38:22;13.16;74.63
76239;SHT30;65043;48.392;-4.472;2023-03-20T04:40:48;13.15;74.79
76239;SHT30;65043;48.392;-4.472;2023-03-20T04:43:14;13.13;74.66
76239;SHT30;65043;48.392;-4.472;2023-03-20T04:45:40;13.13;74.74
76239;SHT30;65043;48.392;-4.472;2023-03-20T04:48:06;13.13;74.82
76239;SHT30;65043;48.392;-4.472;2023-03-20T04:50:32;13.13;74.95
76239;SHT30;65043;48.392;-4.472;2023-03-20T04:52:57;13.16;74.89
76239;SHT30;65043;48.392;-4.472;2023-03-20T04:55:23;13.13;75.00
76239;SHT30;65043;48.392;-4.472;2023-03-20T04:57:48;13.12;75.18
76239;SHT30;65043;48.392;-4.472;2023-03-20T05:00:14;13.13;74.95
76239;SHT30;65043;48.392;-4.472;2023-03-20T05:02:40;13.13;75.31
76239;SHT30;65043;48.392;-4.472;2023-03-20T05:05:05;13.12;75.46
76239;SHT30;65043;48.392;-4.472;2023-03-20T05:07:31;13.12;75.47
76239;SHT30;65043;48.392;-4.472;2023-03-20T05:09:57;13.13;75.49
76239;SHT30;65043;48.392;-4.472;2023-03-20T05:12:23;13.09;75.65
76239;SHT30;65043;48.392;-4.472;2023-03-20T05:14:49;13.11;75.86
76239;SHT30;65043;48.392;-4.472;2023-03-20T05:17:14;13.09;76.01
76239;SHT30;65043;48.392;-4.472;2023-03-20T05:19:40;13.08;75.90
76239;SHT30;65043;48.392;-4.472;2023-03-20T05:22:07;13.09;76.06
76239;SHT30;65043;48.392;-4.472;2023-03-20T05:24:32;13.11;75.96
76239;SHT30;65043;48.392;-4.472;2023-03-20T05:26:58;13.12;76.16
76239;SHT30;65043;48.392;-4.472;2023-03-20T05:29:24;13.09;76.30
76239;SHT30;65043;48.392;-4.472;2023-03-20T05:31:49;13.08;76.29
76239;SHT30;65043;48.392;-4.472;2023-03-20T05:34:15;13.09;76.49
76239;SHT30;65043;48.392;-4.472;2023-03-20T05:36:40;13.09;76.33
76239;SHT30;65043;48.392;-4.472;2023-03-20T05:39:06;13.09;76.30
76239;SHT30;65043;48.392;-4.472;2023-03-20T05:41:31;13.09;76.20
76239;SHT30;65043;48.392;-4.472;2023-03-20T05:43:56;13.05;76.50
76239;SHT30;65043;48.392;-4.472;2023-03-20T05:46:22;13.05;76.51
76239;SHT30;65043;48.392;-4.472;2023-03-20T05:48:48;13.05;76.57
76239;SHT30;65043;48.392;-4.472;2023-03-20T05:51:13;13.08;76.71
76239;SHT30;65043;48.392;-4.472;2023-03-20T05:53:38;13.06;76.63
76239;SHT30;65043;48.392;-4.472;2023-03-20T05:56:05;13.06;76.63
76239;SHT30;65043;48.392;-4.472;2023-03-20T05:58:30;13.08;76.66
76239;SHT30;65043;48.392;-4.472;2023-03-20T06:00:56;13.06;76.87
76239;SHT30;65043;48.392;-4.472;2023-03-20T06:03:22;13.03;76.75
76239;SHT30;65043;48.392;-4.472;2023-03-20T06:05:47;13.05;76.93
76239;SHT30;65043;48.392;-4.472;2023-03-20T06:08:13;13.02;76.83
76239;SHT30;65043;48.392;-4.472;2023-03-20T06:10:40;13.05;76.77
76239;SHT30;65043;48.392;-4.472;2023-03-20T06:13:05;13.03;76.94
76239;SHT30;65043;48.392;-4.472;2023-03-20T06:15:31;13.05;76.83
76239;SHT30;65043;48.392;-4.472;2023-03-20T06:17:57;13.02;76.70
76239;SHT30;65043;48.392;-4.472;2023-03-20T06:20:23;13.03;76.73
76239;SHT30;65043;48.392;-4.472;2023-03-20T06:22:49;13.03;76.97
76239;SHT30;65043;48.392;-4.472;2023-03-20T06:25:15;13.03;76.82
76239;SHT30;65043;48.392;-4.472;2023-03-20T06:27:40;13.01;76.73
76239;SHT30;65043;48.392;-4.472;2023-03-20T06:30:06;13.03;76.81
76239;SHT30;65043;48.392;-4.472;2023-03-20T06:32:32;13.01;76.85
76239;SHT30;65043;48.392;-4.472;2023-03-20T06:34:58;12.99;76.92
76239;SHT30;65043;48.392;-4.472;2023-03-20T06:37:23;12.99;77.01
76239;SHT30;65043;48.392;-4.472;2023-03-20T06:39:48;12.99;76.77
76239;SHT30;65043;48.392;-4.472;2023-03-20T06:42:14;13.01;76.80
76239;SHT30;65043;48.392;-4.472;2023-03-20T06:44:41;12.98;76.87
76239;SHT30;65043;48.392;-4.472;2023-03-20T06:47:06;12.98;76.84
76239;SHT30;65043;48.392;-4.472;2023-03-20T06:49:32;12.99;76.95
76239;SHT30;65043;48.392;-4.472;2023-03-20T06:51:57;12.98;76.93
76239;SHT30;65043;48.392;-4.472;2023-03-20T06:54:23;12.96;77.03
76239;SHT30;65043;48.392;-4.472;2023-03-20T06:56:49;12.98;76.96
76239;SHT30;65043;48.392;-4.472;2023-03-20T06:59:14;12.99;77.09
76239;SHT30;65043;48.392;-4.472;2023-03-20T07:01:40;12.99;77.12
76239;SHT30;65043;48.392;-4.472;2023-03-20T07:04:06;12.98;77.10
76239;SHT30;65043;48.392;-4.472;2023-03-20T07:06:31;12.98;77.26
76239;SHT30;65043;48.392;-4.472;2023-03-20T07:08:58;12.95;77.33
76239;SHT30;65043;48.392;-4.472;2023-03-20T07:11:23;12.99;77.26
76239;SHT30;65043;48.392;-4.472;2023-03-20T07:13:49;12.96;77.04
76239;SHT30;65043;48.392;-4.472;2023-03-20T07:16:14;13.01;77.17
76239;SHT30;65043;48.392;-4.472;2023-03-20T07:18:39;13.08;77.10
76239;SHT30;65043;48.392;-4.472;2023-03-20T07:21:06;13.06;76.68
76239;SHT30;65043;48.392;-4.472;2023-03-20T07:23:32;13.08;77.07
76239;SHT30;65043;48.392;-4.472;2023-03-20T07:26:01;13.08;76.70
76239;SHT30;65043;48.392;-4.472;2023-03-20T07:28:27;13.06;77.11
76239;SHT30;65043;48.392;-4.472;2023-03-20T07:30:53;13.03;77.03
76239;SHT30;65043;48.392;-4.472;2023-03-20T07:33:19;13.01;77.00
76239;SHT30;65043;48.392;-4.472;2023-03-20T07:35:45;13.02;77.11
76239;SHT30;65043;48.392;-4.472;2023-03-20T07:38:10;13.03;77.09
76239;SHT30;65043;48.392;-4.472;2023-03-20T07:40:36;13.02;77.35
76239;SHT30;65043;48.392;-4.472;2023-03-20T07:43:02;13.06;77.21
76239;SHT30;65043;48.392;-4.472;2023-03-20T07:45:27;13.09;77.18
76239;SHT30;65043;48.392;-4.472;2023-03-20T07:47:53;13.12;77.13
76239;SHT30;65043;48.392;-4.472;2023-03-20T07:50:18;13.12;76.74
76239;SHT30;65043;48.392;-4.472;2023-03-20T07:52:47;13.11;76.80
76239;SHT30;65043;48.392;-4.472;2023-03-20T07:55:14;13.11;77.19
76239;SHT30;65043;48.392;-4.472;2023-03-20T07:57:40;13.12;77.04
76239;SHT30;65043;48.392;-4.472;2023-03-20T08:00:06;13.15;77.05
76239;SHT30;65043;48.392;-4.472;2023-03-20T08:02:33;13.13;77.03
76239;SHT30;65043;48.392;-4.472;2023-03-20T08:04:58;13.13;77.11
76239;SHT30;65043;48.392;-4.472;2023-03-20T08:07:24;13.15;77.22
76239;SHT30;65043;48.392;-4.472;2023-03-20T08:09:49;13.16;77.22
76239;SHT30;65043;48.392;-4.472;2023-03-20T08:12:15;13.11;77.34
76239;SHT30;65043;48.392;-4.472;2023-03-20T08:14:41;13.13;77.01
76239;SHT30;65043;48.392;-4.472;2023-03-20T08:17:08;13.13;77.42
76239;SHT30;65043;48.392;-4.472;2023-03-20T08:19:33;13.11;77.61
76239;SHT30;65043;48.392;-4.472;2023-03-20T08:21:58;13.11;77.54
76239;SHT30;65043;48.392;-4.472;2023-03-20T08:24:24;13.08;77.71
76239;SHT30;65043;48.392;-4.472;2023-03-20T08:26:49;13.09;77.75
76239;SHT30;65043;48.392;-4.472;2023-03-20T08:29:15;13.03;77.84
76239;SHT30;65043;48.392;-4.472;2023-03-20T08:31:44;13.05;77.77
76239;SHT30;65043;48.392;-4.472;2023-03-20T08:34:09;13.03;77.72
76239;SHT30;65043;48.392;-4.472;2023-03-20T08:36:35;13.02;77.41
76239;SHT30;65043;48.392;-4.472;2023-03-20T08:39:00;12.99;77.56
76239;SHT30;65043;48.392;-4.472;2023-03-20T08:41:26;13.02;77.69
76239;SHT30;65043;48.392;-4.472;2023-03-20T08:43:51;13.01;77.36
76239;SHT30;65043;48.392;-4.472;2023-03-20T08:46:16;12.98;77.60
76239;SHT30;65043;48.392;-4.472;2023-03-20T08:48:42;12.98;77.74
76239;SHT30;65043;48.392;-4.472;2023-03-20T08:51:07;12.99;77.49
76239;SHT30;65043;48.392;-4.472;2023-03-20T08:53:33;12.98;77.68
76239;SHT30;65043;48.392;-4.472;2023-03-20T08:55:58;13.01;77.59
76239;SHT30;65043;48.392;-4.472;2023-03-20T08:58:23;13.01;77.43
76239;SHT30;65043;48.392;-4.472;2023-03-20T09:00:49;13.01;77.42
76239;SHT30;65043;48.392;-4.472;2023-03-20T09:03:18;12.98;77.51
76239;SHT30;65043;48.392;-4.472;2023-03-20T09:05:45;12.99;77.63
76239;SHT30;65043;48.392;-4.472;2023-03-20T09:08:11;13.02;77.57
76239;SHT30;65043;48.392;-4.472;2023-03-20T09:10:37;13.03;77.44
76239;SHT30;65043;48.392;-4.472;2023-03-20T09:13:02;13.01;77.53
76239;SHT30;65043;48.392;-4.472;2023-03-20T09:15:28;13.03;77.49
76239;SHT30;65043;48.392;-4.472;2023-03-20T09:17:53;13.06;77.36
76239;SHT30;65043;48.392;-4.472;2023-03-20T09:20:19;13.05;77.61
76239;SHT30;65043;48.392;-4.472;2023-03-20T09:22:45;13.09;77.48
76239;SHT30;65043;48.392;-4.472;2023-03-20T09:25:11;13.11;77.22
76239;SHT30;65043;48.392;-4.472;2023-03-20T09:27:37;13.09;77.23
76239;SHT30;65043;48.392;-4.472;2023-03-20T09:30:06;13.11;77.13
76239;SHT30;65043;48.392;-4.472;2023-03-20T09:32:33;13.08;77.15
76239;SHT30;65043;48.392;-4.472;2023-03-20T09:34:59;13.09;77.08
76239;SHT30;65043;48.392;-4.472;2023-03-20T09:37:25;13.08;77.00
76239;SHT30;65043;48.392;-4.472;2023-03-20T09:39:51;13.08;76.96
76239;SHT30;65043;48.392;-4.472;2023-03-20T09:45:13;13.12;77.25
76239;SHT30;65043;48.392;-4.472;2023-03-20T09:50:24;13.09;76.82
76239;SHT30;65043;48.392;-4.472;2023-03-20T09:55:54;13.15;76.28
76239;SHT30;65043;48.392;-4.472;2023-03-20T09:58:26;13.09;76.49
76239;SHT30;65043;48.392;-4.472;2023-03-20T10:00:57;13.08;76.60
76239;SHT30;65043;48.392;-4.472;2023-03-20T10:03:31;13.03;76.86
76239;SHT30;65043;48.392;-4.472;2023-03-20T10:06:06;13.08;76.98
76239;SHT30;65043;48.392;-4.472;2023-03-20T10:08:34;13.09;76.88
76239;SHT30;65043;48.392;-4.472;2023-03-20T10:17:26;13.23;76.65
76239;SHT30;65043;48.392;-4.472;2023-03-20T10:20:12;13.29;76.25
76239;SHT30;65043;48.392;-4.472;2023-03-20T10:22:47;13.35;75.69
76239;SHT30;65043;48.392;-4.472;2023-03-20T10:28:12;13.43;75.62
76239;SHT30;65043;48.392;-4.472;2023-03-20T10:33:54;13.56;75.57
76239;SHT30;65043;48.392;-4.472;2023-03-20T10:42:02;13.69;75.25
76239;SHT30;65043;48.392;-4.472;2023-03-20T10:44:33;13.75;74.90
76239;SHT30;65043;48.392;-4.472;2023-03-20T10:47:02;13.78;74.88
76239;SHT30;65043;48.392;-4.472;2023-03-20T10:49:39;13.84;74.63
76239;SHT30;65043;48.392;-4.472;2023-03-20T10:52:13;13.87;74.55
76239;SHT30;65043;48.392;-4.472;2023-03-20T10:54:44;13.88;74.17
76239;SHT30;65043;48.392;-4.472;2023-03-20T10:57:16;13.92;74.38
76239;SHT30;65043;48.392;-4.472;2023-03-20T11:00:00;13.91;74.27
76239;SHT30;65043;48.392;-4.472;2023-03-20T11:02:30;13.90;74.00
76239;SHT30;65043;48.392;-4.472;2023-03-20T11:04:59;13.87;74.11
76239;SHT30;65043;48.392;-4.472;2023-03-20T11:07:27;13.84;73.84
76239;SHT30;65043;48.392;-4.472;2023-03-20T11:12:37;13.81;73.91
76239;SHT30;65043;48.392;-4.472;2023-03-20T11:18:10;13.92;74.12
76239;SHT30;65043;48.392;-4.472;2023-03-20T11:20:53;13.98;73.90
76239;SHT30;65043;48.392;-4.472;2023-03-20T11:23:24;14.01;73.67
76239;SHT30;65043;48.392;-4.472;2023-03-20T11:25:56;14.01;73.49
76239;SHT30;65043;48.392;-4.472;2023-03-20T11:31:05;14.17;73.17
76239;SHT30;65043;48.392;-4.472;2023-03-20T11:33:38;14.24;73.21
76239;SHT30;65043;48.392;-4.472;2023-03-20T11:36:26;14.25;73.02
76239;SHT30;65043;48.392;-4.472;2023-03-20T11:39:00;14.29;72.54
76239;SHT30;65043;48.392;-4.472;2023-03-20T11:41:29;14.28;72.64
76239;SHT30;65043;48.392;-4.472;2023-03-20T11:43:55;14.29;72.59
76239;SHT30;65043;48.392;-4.472;2023-03-20T11:46:22;14.29;72.44
76239;SHT30;65043;48.392;-4.472;2023-03-20T11:49:18;14.28;72.43
76239;SHT30;65043;48.392;-4.472;2023-03-20T11:51:45;14.32;72.27
76239;SHT30;65043;48.392;-4.472;2023-03-20T11:54:16;14.29;72.23
76239;SHT30;65043;48.392;-4.472;2023-03-20T11:56:57;14.28;72.17
76239;SHT30;65043;48.392;-4.472;2023-03-20T11:59:43;14.31;72.25
76239;SHT30;65043;48.392;-4.472;2023-03-20T12:02:18;14.31;72.02
76239;SHT30;65043;48.392;-4.472;2023-03-20T12:04:45;14.29;72.13
76239;SHT30;65043;48.392;-4.472;2023-03-20T12:07:16;14.33;72.25
76239;SHT30;65043;48.392;-4.472;2023-03-20T12:09:47;14.35;72.22
76239;SHT30;65043;48.392;-4.472;2023-03-20T12:23:36;14.07;72.61
76239;SHT30;65043;48.392;-4.472;2023-03-20T12:26:12;13.92;72.21
76239;SHT30;65043;48.392;-4.472;2023-03-20T12:28:57;13.87;72.67
76239;SHT30;65043;48.392;-4.472;2023-03-20T12:31:43;13.81;73.07
76239;SHT30;65043;48.392;-4.472;2023-03-20T12:35:01;13.74;73.36
76239;SHT30;65043;48.392;-4.472;2023-03-20T12:37:09;13.71;73.70
76239;SHT30;65043;48.392;-4.472;2023-03-20T12:39:37;13.67;73.88
76239;SHT30;65043;48.392;-4.472;2023-03-20T12:44:54;13.70;73.96
76239;SHT30;65043;48.392;-4.472;2023-03-20T12:50:36;13.74;72.74
76239;SHT30;65043;48.392;-4.472;2023-03-20T13:01:51;13.97;72.61
76239;SHT30;65043;48.392;-4.472;2023-03-20T13:04:26;13.95;71.94
76239;SHT30;65043;48.392;-4.472;2023-03-20T13:07:01;13.94;72.00
76239;SHT30;65043;48.392;-4.472;2023-03-20T13:12:39;13.84;72.23
76239;SHT30;65043;48.392;-4.472;2023-03-20T13:15:33;13.81;72.63
76239;SHT30;65043;48.392;-4.472;2023-03-20T13:21:02;13.78;73.66
76239;SHT30;65043;48.392;-4.472;2023-03-20T13:23:45;13.78;73.75
76239;SHT30;65043;48.392;-4.472;2023-03-20T13:29:02;13.70;74.52
76239;SHT30;65043;48.392;-4.472;2023-03-20T13:37:39;13.66;73.38
76239;SHT30;65043;48.392;-4.472;2023-03-20T13:40:28;13.70;73.49
76239;SHT30;65043;48.392;-4.472;2023-03-20T13:46:06;13.85;72.29
76239;SHT30;65043;48.392;-4.472;2023-03-20T13:48:34;13.92;71.53
76239;SHT30;65043;48.392;-4.472;2023-03-20T13:53:47;14.11;71.24
76239;SHT30;65043;48.392;-4.472;2023-03-20T13:59:24;14.24;70.62
76239;SHT30;65043;48.392;-4.472;2023-03-20T14:04:22;14.26;70.54
76239;SHT30;65043;48.392;-4.472;2023-03-20T14:06:49;14.28;70.29
76239;SHT30;65043;48.392;-4.472;2023-03-20T14:09:33;14.32;70.17
76239;SHT30;65043;48.392;-4.472;2023-03-20T14:12:01;14.24;70.46
76239;SHT30;65043;48.392;-4.472;2023-03-20T14:14:38;14.18;70.03
76239;SHT30;65043;48.392;-4.472;2023-03-20T14:17:26;14.12;70.19
76239;SHT30;65043;48.392;-4.472;2023-03-20T14:19:53;14.04;70.41
76239;SHT30;65043;48.392;-4.472;2023-03-20T14:22:28;13.94;69.76
76239;SHT30;65043;48.392;-4.472;2023-03-20T14:25:11;13.92;70.06
76239;SHT30;65043;48.392;-4.472;2023-03-20T14:28:04;13.90;70.70
76239;SHT30;65043;48.392;-4.472;2023-03-20T14:35:27;13.92;71.88
76239;SHT30;65043;48.392;-4.472;2023-03-20T14:37:57;13.94;71.69
76239;SHT30;65043;48.392;-4.472;2023-03-20T14:40:33;14.04;71.66
76239;SHT30;65043;48.392;-4.472;2023-03-20T14:43:04;14.05;71.20
76239;SHT30;65043;48.392;-4.472;2023-03-20T14:45:39;14.11;71.13
76239;SHT30;65043;48.392;-4.472;2023-03-20T14:48:13;14.12;70.82
76239;SHT30;65043;48.392;-4.472;2023-03-20T14:51:37;14.17;70.87
76239;SHT30;65043;48.392;-4.472;2023-03-20T14:53:39;14.22;70.79
76239;SHT30;65043;48.392;-4.472;2023-03-20T14:56:10;14.25;70.75
76239;SHT30;65043;48.392;-4.472;2023-03-20T14:59:05;14.26;70.65
76239;SHT30;65043;48.392;-4.472;2023-03-20T15:04:27;14.20;70.73
76239;SHT30;65043;48.392;-4.472;2023-03-20T15:06:57;14.24;70.94
76239;SHT30;65043;48.392;-4.472;2023-03-20T15:09:25;14.20;70.10
76239;SHT30;65043;48.392;-4.472;2023-03-20T15:11:52;14.10;70.31
76239;SHT30;65043;48.392;-4.472;2023-03-20T15:14:25;14.02;70.59
76239;SHT30;65043;48.392;-4.472;2023-03-20T15:16:58;13.98;70.55
76239;SHT30;65043;48.392;-4.472;2023-03-20T15:19:24;13.97;70.71
76239;SHT30;65043;48.392;-4.472;2023-03-20T15:21:52;13.97;70.01
76239;SHT30;65043;48.392;-4.472;2023-03-20T15:24:20;13.90;69.59
76239;SHT30;65043;48.392;-4.472;2023-03-20T15:26:51;13.81;69.33
76239;SHT30;65043;48.392;-4.472;2023-03-20T15:29:16;13.75;69.70
76239;SHT30;65043;48.392;-4.472;2023-03-20T15:31:43;13.71;70.46
76239;SHT30;65043;48.392;-4.472;2023-03-20T15:34:25;13.69;70.63
76239;SHT30;65043;48.392;-4.472;2023-03-20T15:36:54;13.63;70.61
76239;SHT30;65043;48.392;-4.472;2023-03-20T15:39:23;13.63;70.61
76239;SHT30;65043;48.392;-4.472;2023-03-20T15:49:37;13.39;70.96
76239;SHT30;65043;48.392;-4.472;2023-03-20T15:52:15;13.38;71.18
76239;SHT30;65043;48.392;-4.472;2023-03-20T15:54:47;13.35;70.06
76239;SHT30;65043;48.392;-4.472;2023-03-20T15:57:20;13.32;70.49
76239;SHT30;65043;48.392;-4.472;2023-03-20T15:59:45;13.32;70.80
76239;SHT30;65043;48.392;-4.472;2023-03-20T16:02:12;13.29;70.87
76239;SHT30;65043;48.392;-4.472;2023-03-20T16:04:50;13.29;70.80
76239;SHT30;65043;48.392;-4.472;2023-03-20T16:07:30;13.29;70.78
76239;SHT30;65043;48.392;-4.472;2023-03-20T16:09:57;13.29;70.65
76239;SHT30;65043;48.392;-4.472;2023-03-20T16:12:22;13.32;70.68
76239;SHT30;65043;48.392;-4.472;2023-03-20T16:14:49;13.32;70.36
76239;SHT30;65043;48.392;-4.472;2023-03-20T16:17:17;13.29;70.91
76239;SHT30;65043;48.392;-4.472;2023-03-20T16:19:43;13.30;70.86
76239;SHT30;65043;48.392;-4.472;2023-03-20T16:22:18;13.30;70.77
76239;SHT30;65043;48.392;-4.472;2023-03-20T16:24:49;13.23;71.11
76239;SHT30;65043;48.392;-4.472;2023-03-20T16:27:31;13.24;70.89
76239;SHT30;65043;48.392;-4.472;2023-03-20T16:29:58;13.23;70.56
76239;SHT30;65043;48.392;-4.472;2023-03-20T16:34:53;13.22;70.90
76239;SHT30;65043;48.392;-4.472;2023-03-20T16:37:28;13.23;71.02
76239;SHT30;65043;48.392;-4.472;2023-03-20T16:42:38;13.22;71.18
76239;SHT30;65043;48.392;-4.472;2023-03-20T16:45:05;13.20;71.38
76239;SHT30;65043;48.392;-4.472;2023-03-20T16:47:35;13.22;71.67
76239;SHT30;65043;48.392;-4.472;2023-03-20T16:52:47;13.18;71.89
76239;SHT30;65043;48.392;-4.472;2023-03-20T16:55:20;13.16;71.66
76239;SHT30;65043;48.392;-4.472;2023-03-20T16:57:50;13.12;71.22
76239;SHT30;65043;48.392;-4.472;2023-03-20T17:00:20;13.08;71.99
76239;SHT30;65043;48.392;-4.472;2023-03-20T17:03:13;13.08;72.04
76239;SHT30;65043;48.392;-4.472;2023-03-20T17:08:14;13.02;72.55
76239;SHT30;65043;48.392;-4.472;2023-03-20T17:10:48;13.06;72.51
76239;SHT30;65043;48.392;-4.472;2023-03-20T17:13:13;13.03;72.23
76239;SHT30;65043;48.392;-4.472;2023-03-20T17:15:39;13.03;72.55
76239;SHT30;65043;48.392;-4.472;2023-03-20T17:18:04;13.05;72.68
76239;SHT30;65043;48.392;-4.472;2023-03-20T17:20:34;13.05;72.70
76239;SHT30;65043;48.392;-4.472;2023-03-20T17:22:59;13.05;72.76
76239;SHT30;65043;48.392;-4.472;2023-03-20T17:25:25;13.08;72.66
76239;SHT30;65043;48.392;-4.472;2023-03-20T17:27:51;13.11;72.57
76239;SHT30;65043;48.392;-4.472;2023-03-20T17:30:22;13.09;72.83
76239;SHT30;65043;48.392;-4.472;2023-03-20T17:32:49;13.11;72.98
76239;SHT30;65043;48.392;-4.472;2023-03-20T17:35:14;13.08;72.80
76239;SHT30;65043;48.392;-4.472;2023-03-20T17:37:40;13.03;72.87
76239;SHT30;65043;48.392;-4.472;2023-03-20T17:40:07;12.98;72.86
76239;SHT30;65043;48.392;-4.472;2023-03-20T17:42:34;12.93;73.34
76239;SHT30;65043;48.392;-4.472;2023-03-20T17:45:03;12.92;73.32
76239;SHT30;65043;48.392;-4.472;2023-03-20T17:47:29;12.89;73.42
76239;SHT30;65043;48.392;-4.472;2023-03-20T17:49:55;12.87;73.45
76239;SHT30;65043;48.392;-4.472;2023-03-20T17:52:23;12.87;73.60
76239;SHT30;65043;48.392;-4.472;2023-03-20T17:54:48;12.88;73.62
76239;SHT30;65043;48.392;-4.472;2023-03-20T17:57:21;12.89;73.71
76239;SHT30;65043;48.392;-4.472;2023-03-20T17:59:48;12.85;73.93
76239;SHT30;65043;48.392;-4.472;2023-03-20T18:02:17;12.82;74.17
76239;SHT30;65043;48.392;-4.472;2023-03-20T18:04:46;12.88;74.26